Time;durP1;ratioP1;P1;durP2;ratioP2;P2;SDS_P1;SDS_P2;PMS_P1;PMS_P2;Temp;Humidity;BMP_temperature;BMP_pressure;BME280_temperature;BME280_humidity;BME280_pressure;Samples;Min_cycle;Max_cycle;Signal;HPM_P1;HPM_P2
2024/03/07 00:01:29;;;;;;;;;;;;;;;9.62;68.21;99642.09;5033649;28;19968;-85
2024/03/07 00:03:54;;;;;;;;;;;;;;;9.60;68.57;99647.53;5033741;28;19913;-84
2024/03/07 00:06:20;;;;;;;;;;;;;;;9.61;67.89;99650.97;5033612;28;20382;-85
2024/03/07 00:08:46;;;;;;;;;;;;;;;9.61;67.78;99637.81;5033775;28;19913;-85
2024/03/07 00:11:11;;;;;;;;;;;;;;;9.57;67.91;99632.88;5033048;28;19913;-85
2024/03/07 00:13:36;;;;;;;;;;;;;;;9.60;67.80;99644.88;5033633;28;19964;-85
2024/03/07 00:16:02;;;;;;;;;;;;;;;9.55;67.77;99632.22;5033649;28;19917;-85
2024/03/07 00:18:27;;;;;;;;;;;;;;;9.52;68.09;99629.09;5033503;28;19913;-85
2024/03/07 00:20:54;;;;;;;;;;;;;;;9.48;68.27;99625.97;5033481;28;20302;-85
2024/03/07 00:23:19;;;;;;;;;;;;;;;9.49;68.07;99632.91;5033585;28;19913;-84
2024/03/07 00:25:45;;;;;;;;;;;;;;;9.44;67.95;99624.66;5033416;28;20325;-85
2024/03/07 00:28:10;;;;;;;;;;;;;;;9.45;68.55;99614.94;5033673;28;19910;-84
2024/03/07 00:30:35;;;;;;;;;;;;;;;9.44;68.86;99622.03;5033452;28;19917;-85
2024/03/07 00:33:01;;;;;;;;;;;;;;;9.45;68.34;99614.94;5033319;28;19936;-85
2024/03/07 00:35:27;;;;;;;;;;;;;;;9.42;68.11;99620.56;5033364;28;20325;-85
2024/03/07 00:37:52;;;;;;;;;;;;;;;9.39;68.21;99611.19;5033255;28;19956;-85
2024/03/07 00:40:18;;;;;;;;;;;;;;;9.40;68.80;99619.91;5033377;28;20333;-85
2024/03/07 00:42:43;;;;;;;;;;;;;;;9.40;68.38;99619.91;5033211;28;19917;-85
2024/03/07 00:45:09;;;;;;;;;;;;;;;9.42;68.01;99616.09;5033030;28;19920;-85
2024/03/07 00:47:34;;;;;;;;;;;;;;;9.43;68.34;99609.03;5031489;28;19913;-84
2024/03/07 00:50:00;;;;;;;;;;;;;;;9.44;68.42;99615.94;5032960;28;19914;-85
2024/03/07 00:52:25;;;;;;;;;;;;;;;9.49;68.20;99605.72;5033083;28;19924;-85
2024/03/07 00:54:51;;;;;;;;;;;;;;;9.47;68.11;99611.16;5032943;28;20313;-85
2024/03/07 00:57:16;;;;;;;;;;;;;;;9.47;67.75;99605.88;5032795;28;19913;-85
2024/03/07 00:59:41;;;;;;;;;;;;;;;9.43;68.06;99603.75;5032943;28;20382;-85
2024/03/07 01:02:07;;;;;;;;;;;;;;;9.38;67.80;99601.63;5032481;28;19940;-85
2024/03/07 01:04:33;;;;;;;;;;;;;;;9.37;67.79;99605.25;5032670;28;20378;-85
2024/03/07 01:06:58;;;;;;;;;;;;;;;9.34;67.99;99597.69;5032557;28;19920;-84
2024/03/07 01:09:24;;;;;;;;;;;;;;;9.36;67.67;99598.34;5032654;28;19909;-85
2024/03/07 01:11:49;;;;;;;;;;;;;;;9.34;68.05;99597.69;5032615;28;20390;-85
2024/03/07 01:14:15;;;;;;;;;;;;;;;9.34;67.58;99597.69;5031270;28;19983;-85
2024/03/07 01:16:40;;;;;;;;;;;;;;;9.34;67.75;99600.31;5032622;28;19971;-85
2024/03/07 01:19:06;;;;;;;;;;;;;;;9.36;67.56;99595.72;5032519;28;19917;-85
2024/03/07 01:21:34;;;;;;;;;;;;;;;9.34;67.57;99600.31;5032486;28;19920;-85
2024/03/07 01:24:00;;;;;;;;;;;;;;;9.40;67.67;99599.66;5031303;28;19913;-84
2024/03/07 01:26:26;;;;;;;;;;;;;;;9.41;67.01;99600.47;5032195;28;20036;-85
2024/03/07 01:28:52;;;;;;;;;;;;;;;9.40;67.72;99594.38;5032310;28;20306;-84
2024/03/07 01:31:18;;;;;;;;;;;;;;;9.38;67.18;99591.09;5032236;28;19913;-84
2024/03/07 01:33:43;;;;;;;;;;;;;;;9.33;67.94;99588.13;5032059;28;19917;-85
2024/03/07 01:36:08;;;;;;;;;;;;;;;9.36;67.79;99581.72;5032119;28;19913;-84
2024/03/07 01:38:33;;;;;;;;;;;;;;;9.39;67.90;99598.00;5032123;28;20298;-84
2024/03/07 01:40:59;;;;;;;;;;;;;;;9.44;67.89;99590.41;5032282;28;19913;-84
2024/03/07 01:43:24;;;;;;;;;;;;;;;9.44;67.67;99584.31;5032098;28;19917;-84
2024/03/07 01:45:53;;;;;;;;;;;;;;;9.40;67.29;99583.84;5032040;28;19944;-84
2024/03/07 01:48:25;;;;;;;;;;;;;;;9.41;67.65;99579.38;5030527;28;19924;-85
2024/03/07 01:50:51;;;;;;;;;;;;;;;9.39;67.27;99570.81;5031894;28;20324;-84
2024/03/07 01:53:16;;;;;;;;;;;;;;;9.39;67.16;99571.66;5031806;28;19913;-85
2024/03/07 01:55:44;;;;;;;;;;;;;;;9.37;67.43;99565.72;5031673;28;20394;-86
2024/03/07 01:58:14;;;;;;;;;;;;;;;9.37;67.17;99562.28;5031861;28;19913;-85
2024/03/07 02:00:39;;;;;;;;;;;;;;;9.28;67.55;99558.84;5030599;28;20008;-84
2024/03/07 02:03:06;;;;;;;;;;;;;;;9.24;67.14;99565.44;5031579;28;20000;-85
2024/03/07 02:05:32;;;;;;;;;;;;;;;9.23;67.50;99561.97;5031595;28;20386;-85
2024/03/07 02:07:58;;;;;;;;;;;;;;;9.24;67.16;99560.16;5030126;28;19988;-85
2024/03/07 02:10:23;;;;;;;;;;;;;;;9.26;67.35;99560.00;5031707;28;19913;-86
2024/03/07 02:12:48;;;;;;;;;;;;;;;9.26;67.27;99566.09;5031813;28;19986;-84
2024/03/07 02:15:14;;;;;;;;;;;;;;;9.25;67.43;99561.81;5031573;28;20405;-84
2024/03/07 02:17:39;;;;;;;;;;;;;;;9.24;66.95;99562.81;5031604;28;19921;-85
2024/03/07 02:20:07;;;;;;;;;;;;;;;9.24;67.04;99560.16;5031401;28;20501;-85
2024/03/07 02:22:33;;;;;;;;;;;;;;;9.22;67.49;99567.41;5030179;28;19920;-85
2024/03/07 02:24:58;;;;;;;;;;;;;;;9.24;67.45;99554.91;5031365;28;19913;-85
2024/03/07 02:27:23;;;;;;;;;;;;;;;9.20;67.46;99564.13;5031307;28;20402;-85
2024/03/07 02:29:50;;;;;;;;;;;;;;;9.22;67.67;99562.16;5031439;28;19913;-85
2024/03/07 02:32:15;;;;;;;;;;;;;;;9.25;67.59;99564.44;5031260;28;19913;-85
2024/03/07 02:34:40;;;;;;;;;;;;;;;9.26;67.54;99566.09;5032686;28;19924;-85
2024/03/07 02:37:06;;;;;;;;;;;;;;;9.20;67.60;99564.13;5035478;28;20404;-85
2024/03/07 02:39:31;;;;;;;;;;;;;;;9.14;68.00;99562.16;5035488;28;19913;-86
2024/03/07 02:41:56;;;;;;;;;;;;;;;9.14;68.12;99551.63;5035334;28;19920;-86
2024/03/07 02:44:22;;;;;;;;;;;;;;;9.16;67.91;99550.47;5035162;28;20412;-86
2024/03/07 02:46:47;;;;;;;;;;;;;;;9.14;68.56;99549.81;5035262;28;19917;-86
2024/03/07 02:49:13;;;;;;;;;;;;;;;9.19;68.43;99550.13;5034088;28;20391;-85
2024/03/07 02:51:38;;;;;;;;;;;;;;;9.19;68.76;99554.59;5033949;28;19914;-85
2024/03/07 02:54:05;;;;;;;;;;;;;;;9.20;68.32;99543.06;5035346;28;19917;-85
2024/03/07 02:56:31;;;;;;;;;;;;;;;9.23;68.01;99545.34;5035105;28;19921;-85
2024/03/07 02:58:56;;;;;;;;;;;;;;;9.24;68.51;99549.63;5035137;28;19920;-85
2024/03/07 03:01:21;;;;;;;;;;;;;;;9.23;68.47;99553.25;5034985;28;19967;-85
2024/03/07 03:03:46;;;;;;;;;;;;;;;9.23;68.25;99550.63;5035146;28;20412;-85
2024/03/07 03:06:12;;;;;;;;;;;;;;;9.25;68.05;99553.91;5034845;28;19920;-85
2024/03/07 03:08:37;;;;;;;;;;;;;;;9.30;68.52;99558.66;5034770;28;20406;-85
2024/03/07 03:11:03;;;;;;;;;;;;;;;9.33;68.20;99553.88;5034998;28;19967;-85
2024/03/07 03:13:28;;;;;;;;;;;;;;;9.31;68.15;99557.69;5034659;28;20398;-84
2024/03/07 03:15:55;;;;;;;;;;;;;;;9.32;68.15;99562.78;5034763;28;19913;-85
2024/03/07 03:18:21;;;;;;;;;;;;;;;9.33;67.97;99564.44;5033412;28;19921;-85
2024/03/07 03:20:48;;;;;;;;;;;;;;;9.35;67.66;99559.81;5033378;28;19913;-84
2024/03/07 03:23:13;;;;;;;;;;;;;;;9.32;67.78;99561.97;5033286;28;19924;-85
2024/03/07 03:25:39;;;;;;;;;;;;;;;9.27;67.65;99573.00;5034429;28;19913;-85
2024/03/07 03:28:04;;;;;;;;;;;;;;;9.27;67.77;99570.38;5034491;28;20416;-84
2024/03/07 03:30:30;;;;;;;;;;;;;;;9.28;67.77;99569.38;5034603;28;20361;-85
2024/03/07 03:32:55;;;;;;;;;;;;;;;9.33;67.95;99567.06;5034638;28;19960;-85
2024/03/07 03:35:21;;;;;;;;;;;;;;;9.31;67.62;99573.50;5034447;28;19928;-85
2024/03/07 03:37:46;;;;;;;;;;;;;;;9.29;67.56;99576.28;5034376;28;19955;-85
2024/03/07 03:40:12;;;;;;;;;;;;;;;9.32;67.71;99572.50;5034369;28;19913;-84
2024/03/07 03:42:41;;;;;;;;;;;;;;;9.28;67.65;99595.72;5034517;28;19910;-84
2024/03/07 03:45:07;;;;;;;;;;;;;;;9.27;67.97;99585.34;5032784;28;20469;-85
2024/03/07 03:47:36;;;;;;;;;;;;;;;9.29;67.94;99576.28;5033022;28;20000;-84
2024/03/07 03:50:02;;;;;;;;;;;;;;;9.32;67.75;99570.69;5034009;28;19913;-85
2024/03/07 03:52:28;;;;;;;;;;;;;;;9.29;67.73;99578.09;5032799;28;19917;-84
2024/03/07 03:54:54;;;;;;;;;;;;;;;9.30;67.67;99585.03;5032724;28;19968;-86
2024/03/07 03:57:19;;;;;;;;;;;;;;;9.30;67.87;99571.84;5033833;28;19935;-86
2024/03/07 03:59:44;;;;;;;;;;;;;;;9.33;68.04;99582.88;5034143;28;20430;-85
2024/03/07 04:02:10;;;;;;;;;;;;;;;9.35;67.63;99580.06;5034178;28;19983;-85
2024/03/07 04:04:38;;;;;;;;;;;;;;;9.37;67.49;99578.91;5034068;28;19913;-86
2024/03/07 04:07:04;;;;;;;;;;;;;;;9.35;67.37;99585.34;5033838;28;19920;-85
2024/03/07 04:09:29;;;;;;;;;;;;;;;9.37;67.73;99580.72;5033703;28;19913;-85
2024/03/07 04:11:54;;;;;;;;;;;;;;;9.37;66.97;99575.44;5033730;28;19913;-85
2024/03/07 04:14:19;;;;;;;;;;;;;;;9.42;67.48;99579.22;5033595;28;19917;-84
2024/03/07 04:16:45;;;;;;;;;;;;;;;9.40;66.82;99586.47;5032319;28;20361;-85
2024/03/07 04:19:10;;;;;;;;;;;;;;;9.29;67.33;99586.84;5033681;28;19917;-85
2024/03/07 04:21:36;;;;;;;;;;;;;;;9.26;67.41;99587.16;5033385;28;19921;-84
2024/03/07 04:24:02;;;;;;;;;;;;;;;9.31;67.67;99578.75;5033365;28;20317;-85
2024/03/07 04:26:27;;;;;;;;;;;;;;;9.29;67.50;99578.09;5032279;28;20287;-85
2024/03/07 04:28:53;;;;;;;;;;;;;;;9.32;67.49;99580.41;5033438;28;19917;-85
2024/03/07 04:31:18;;;;;;;;;;;;;;;9.31;66.95;99578.75;5033401;28;19919;-85
2024/03/07 04:33:43;;;;;;;;;;;;;;;9.32;67.24;99573.31;5033369;28;19971;-85
2024/03/07 04:36:08;;;;;;;;;;;;;;;9.31;67.48;99576.13;5033415;28;19916;-85
2024/03/07 04:38:34;;;;;;;;;;;;;;;9.32;67.30;99570.69;5033403;28;19920;-85
2024/03/07 04:40:59;;;;;;;;;;;;;;;9.34;67.53;99573.16;5033193;28;20366;-85
2024/03/07 04:43:26;;;;;;;;;;;;;;;9.35;67.00;99575.63;5033200;28;19913;-85
2024/03/07 04:45:51;;;;;;;;;;;;;;;9.36;67.49;99571.16;5033068;28;19979;-85
2024/03/07 04:48:16;;;;;;;;;;;;;;;9.35;67.01;99566.88;5033074;28;20386;-85
2024/03/07 04:50:42;;;;;;;;;;;;;;;9.34;66.99;99567.88;5033086;28;19971;-85
2024/03/07 04:53:07;;;;;;;;;;;;;;;9.36;66.90;99565.91;5033062;28;19913;-85
2024/03/07 04:55:32;;;;;;;;;;;;;;;9.39;67.30;99571.66;5032975;28;19940;-84
2024/03/07 04:57:58;;;;;;;;;;;;;;;9.39;66.93;99576.09;5032847;28;19920;-85
2024/03/07 05:00:23;;;;;;;;;;;;;;;9.39;66.52;99568.19;5032895;28;20382;-85
2024/03/07 05:02:52;;;;;;;;;;;;;;;9.34;66.79;99567.88;5032615;28;19978;-85
2024/03/07 05:05:25;;;;;;;;;;;;;;;9.35;67.17;99565.06;5032878;28;19925;-84
2024/03/07 05:07:51;;;;;;;;;;;;;;;9.35;66.58;99559.00;5032711;28;19909;-85
2024/03/07 05:10:16;;;;;;;;;;;;;;;9.40;66.43;99559.28;5032531;28;20002;-85
2024/03/07 05:12:42;;;;;;;;;;;;;;;9.35;66.37;99570.34;5032681;28;19913;-85
2024/03/07 05:15:09;;;;;;;;;;;;;;;9.36;66.64;99577.25;5032327;28;19917;-85
2024/03/07 05:17:37;;;;;;;;;;;;;;;9.39;66.10;99584.00;5032576;28;20121;-85
2024/03/07 05:20:03;;;;;;;;;;;;;;;9.40;66.77;99581.19;5032285;28;20031;-85
2024/03/07 05:22:30;;;;;;;;;;;;;;;9.40;66.19;99578.56;5032347;28;20424;-84
2024/03/07 05:24:56;;;;;;;;;;;;;;;9.40;66.56;99581.19;5032318;28;19909;-85
2024/03/07 05:27:22;;;;;;;;;;;;;;;9.39;66.10;99584.00;5032238;28;19913;-85
2024/03/07 05:29:47;;;;;;;;;;;;;;;9.42;66.52;99581.03;5032218;28;20000;-85
2024/03/07 05:32:23;;;;;;;;;;;;;;;9.46;66.54;99582.34;5032238;28;19913;-85
2024/03/07 05:34:48;;;;;;;;;;;;;;;9.41;66.45;99585.47;5032196;28;19924;-85
2024/03/07 05:37:13;;;;;;;;;;;;;;;9.43;66.29;99582.66;5030939;28;19913;-85
2024/03/07 05:39:39;;;;;;;;;;;;;;;9.44;66.40;99586.94;5032121;28;19928;-84
2024/03/07 05:42:04;;;;;;;;;;;;;;;9.48;66.35;99586.44;5031969;28;20382;-84
2024/03/07 05:44:29;;;;;;;;;;;;;;;9.51;66.02;99572.94;5030471;28;19913;-85
2024/03/07 05:46:55;;;;;;;;;;;;;;;9.55;66.39;99576.03;5030465;28;19951;-84
2024/03/07 05:49:20;;;;;;;;;;;;;;;9.60;66.33;99581.63;5030459;28;19912;-84
2024/03/07 05:51:47;;;;;;;;;;;;;;;9.62;66.23;99584.91;5031801;28;20059;-84
2024/03/07 05:54:12;;;;;;;;;;;;;;;9.67;66.31;99589.69;5030497;28;19924;-85
2024/03/07 05:56:38;;;;;;;;;;;;;;;9.66;66.08;99580.13;5031659;28;19914;-84
2024/03/07 05:59:04;;;;;;;;;;;;;;;9.66;65.83;99593.31;5031756;28;20283;-85
2024/03/07 06:01:34;;;;;;;;;;;;;;;9.70;66.28;99589.34;5031612;28;19909;-85
2024/03/07 06:03:59;;;;;;;;;;;;;;;9.74;66.32;99588.03;5031693;28;19970;-85
2024/03/07 06:06:25;;;;;;;;;;;;;;;9.79;66.01;99591.78;5031636;28;19913;-85
2024/03/07 06:08:50;;;;;;;;;;;;;;;9.88;65.59;99590.75;5030811;28;19964;-85
2024/03/07 06:11:19;;;;;;;;;;;;;;;10.00;65.58;99591.19;5031408;28;19920;-85
2024/03/07 06:13:46;;;;;;;;;;;;;;;10.06;65.56;99582.59;5031542;28;20452;-85
2024/03/07 06:16:11;;;;;;;;;;;;;;;10.09;65.61;99589.31;5031514;28;19913;-84
2024/03/07 06:18:37;;;;;;;;;;;;;;;10.07;65.36;99589.50;5030512;28;19913;-84
2024/03/07 06:21:04;;;;;;;;;;;;;;;10.11;65.74;99593.44;5031579;28;20375;-85
2024/03/07 06:23:30;;;;;;;;;;;;;;;10.17;65.43;99594.56;5031718;28;19986;-85
2024/03/07 06:25:58;;;;;;;;;;;;;;;10.08;64.84;99599.06;5031566;28;20379;-85
2024/03/07 06:28:23;;;;;;;;;;;;;;;10.04;65.04;99608.31;5031793;28;19913;-85
2024/03/07 06:30:49;;;;;;;;;;;;;;;10.04;65.00;99607.50;5031303;28;20500;-84
2024/03/07 06:33:14;;;;;;;;;;;;;;;10.05;65.03;99599.41;5029780;28;20417;-84
2024/03/07 06:35:41;;;;;;;;;;;;;;;10.07;65.02;99607.16;5031270;28;19968;-85
2024/03/07 06:38:08;;;;;;;;;;;;;;;10.03;64.66;99606.66;5031367;28;20007;-85
2024/03/07 06:40:33;;;;;;;;;;;;;;;10.06;64.79;99606.31;5031348;28;19913;-85
2024/03/07 06:42:59;;;;;;;;;;;;;;;10.12;64.90;99610.91;5031470;28;20368;-85
2024/03/07 06:45:24;;;;;;;;;;;;;;;10.11;64.83;99614.53;5031284;28;19971;-85
2024/03/07 06:47:50;;;;;;;;;;;;;;;10.11;64.57;99619.81;5031229;28;19913;-84
2024/03/07 06:50:17;;;;;;;;;;;;;;;10.10;64.87;99617.34;5031258;28;19913;-85
2024/03/07 06:52:42;;;;;;;;;;;;;;;10.10;64.47;99617.34;5030030;28;19917;-84
2024/03/07 06:55:07;;;;;;;;;;;;;;;10.10;65.04;99612.06;5029785;28;19990;-84
2024/03/07 06:57:34;;;;;;;;;;;;;;;10.08;65.09;99616.69;5031061;28;19913;-85
2024/03/07 06:59:59;;;;;;;;;;;;;;;10.10;65.63;99618.19;5031103;28;19936;-85
2024/03/07 07:02:27;;;;;;;;;;;;;;;10.11;65.22;99616.34;5029515;28;19921;-85
2024/03/07 07:04:53;;;;;;;;;;;;;;;10.09;65.16;99616.53;5031147;28;19988;-85
2024/03/07 07:07:19;;;;;;;;;;;;;;;10.05;65.83;99617.88;5046552;28;20467;-84
2024/03/07 07:09:44;;;;;;;;;;;;;;;9.99;66.04;99623.00;5049605;28;20342;-84
2024/03/07 07:12:09;;;;;;;;;;;;;;;9.95;65.91;99619.06;5051074;28;19913;-84
2024/03/07 07:14:36;;;;;;;;;;;;;;;9.83;66.58;99614.19;5047478;28;19922;-84
2024/03/07 07:17:01;;;;;;;;;;;;;;;9.80;65.82;99614.53;5042772;28;20007;-85
2024/03/07 07:19:27;;;;;;;;;;;;;;;9.78;66.31;99611.25;5043733;28;19921;-83
2024/03/07 07:21:53;;;;;;;;;;;;;;;9.79;66.97;99615.53;5053983;28;19995;-84
2024/03/07 07:24:21;;;;;;;;;;;;;;;9.82;66.18;99614.34;5054479;28;20305;-84
2024/03/07 07:26:46;;;;;;;;;;;;;;;9.78;67.43;99613.06;5054399;28;20394;-84
2024/03/07 07:29:12;;;;;;;;;;;;;;;9.77;67.61;99616.69;5054451;28;19919;-85
2024/03/07 07:31:37;;;;;;;;;;;;;;;9.81;67.52;99616.16;5071024;28;19959;-84
2024/03/07 07:34:04;;;;;;;;;;;;;;;9.84;66.77;99622.91;5072844;28;19917;-84
2024/03/07 07:36:29;;;;;;;;;;;;;;;9.78;67.95;99618.31;5059576;28;20318;-85
2024/03/07 07:38:54;;;;;;;;;;;;;;;9.81;67.07;99620.63;5068393;28;19916;-85
2024/03/07 07:41:20;;;;;;;;;;;;;;;9.79;67.43;99614.69;5073433;28;19912;-85
2024/03/07 07:43:45;;;;;;;;;;;;;;;9.71;67.64;99620.81;5061307;28;19928;-85
2024/03/07 07:46:10;;;;;;;;;;;;;;;9.67;68.39;99635.34;5038394;28;19931;-85
2024/03/07 07:48:35;;;;;;;;;;;;;;;9.66;68.58;99631.06;5071467;28;19920;-85
2024/03/07 07:51:01;;;;;;;;;;;;;;;9.68;68.93;99629.06;5074653;28;19916;-84
2024/03/07 07:53:26;;;;;;;;;;;;;;;9.72;69.34;99630.38;5070121;28;19914;-86
2024/03/07 07:55:51;;;;;;;;;;;;;;;9.75;69.30;99630.03;5053541;28;19956;-86
2024/03/07 07:58:17;;;;;;;;;;;;;;;9.77;68.80;99632.50;5063499;28;19921;-85
2024/03/07 08:00:43;;;;;;;;;;;;;;;9.82;67.50;99633.63;5062425;28;19917;-85
2024/03/07 08:03:11;;;;;;;;;;;;;;;9.76;68.35;99641.41;5054581;28;19925;-86
2024/03/07 08:05:37;;;;;;;;;;;;;;;9.73;68.06;99636.47;5055437;28;19916;-85
2024/03/07 08:08:04;;;;;;;;;;;;;;;9.73;68.29;99642.56;5072583;28;20294;-88
2024/03/07 08:10:30;;;;;;;;;;;;;;;9.70;69.12;99639.44;5074089;28;19969;-87
2024/03/07 08:12:55;;;;;;;;;;;;;;;9.68;69.64;99641.44;5073565;28;20313;-86
2024/03/07 08:15:21;;;;;;;;;;;;;;;9.65;69.86;99650.47;5073605;28;20462;-86
2024/03/07 08:17:47;;;;;;;;;;;;;;;9.64;69.67;99653.28;5073647;28;19919;-86
2024/03/07 08:20:13;;;;;;;;;;;;;;;9.67;69.33;99642.44;5073601;28;19919;-83
2024/03/07 08:22:40;;;;;;;;;;;;;;;9.68;70.19;99651.97;5073600;28;20002;-86
2024/03/07 08:25:08;;;;;;;;;;;;;;;9.69;70.40;99649.16;5073707;28;19912;-85
2024/03/07 08:27:34;;;;;;;;;;;;;;;9.74;69.90;99653.94;5050724;28;20327;-87
2024/03/07 08:29:59;;;;;;;;;;;;;;;9.77;70.12;99651.78;5033796;28;19920;-87
2024/03/07 08:32:26;;;;;;;;;;;;;;;9.78;70.74;99649.97;5032792;28;19913;-86
2024/03/07 08:34:51;;;;;;;;;;;;;;;9.80;70.08;99659.34;5033306;28;19917;-87
2024/03/07 08:37:17;;;;;;;;;;;;;;;9.84;70.55;99655.38;5046353;28;20408;-85
2024/03/07 08:39:42;;;;;;;;;;;;;;;9.88;69.70;99666.41;5073287;28;20007;-86
2024/03/07 08:42:08;;;;;;;;;;;;;;;9.87;69.64;99670.03;5073279;28;19913;-87
2024/03/07 08:44:33;;;;;;;;;;;;;;;9.88;70.08;99666.41;5069059;28;19997;-84
2024/03/07 08:46:58;;;;;;;;;;;;;;;9.83;71.27;99671.38;5060262;28;19922;-86
2024/03/07 08:49:23;;;;;;;;;;;;;;;9.84;70.97;99670.38;5073004;28;20385;-87
2024/03/07 08:51:49;;;;;;;;;;;;;;;9.85;69.64;99672.84;5073098;28;19913;-86
2024/03/07 08:54:14;;;;;;;;;;;;;;;9.85;71.18;99672.84;5064174;28;19928;-86
2024/03/07 08:56:39;;;;;;;;;;;;;;;9.86;70.98;99674.50;5054547;28;20001;-85
2024/03/07 08:59:05;;;;;;;;;;;;;;;9.88;70.61;99682.22;5072683;28;20350;-86
2024/03/07 09:01:30;;;;;;;;;;;;;;;9.88;70.97;99679.59;5072259;28;19919;-86
2024/03/07 09:03:57;;;;;;;;;;;;;;;9.89;71.34;99673.34;5067431;28;20512;-86
2024/03/07 09:06:24;;;;;;;;;;;;;;;9.92;70.71;99680.91;5052596;28;19919;-86
2024/03/07 09:08:49;;;;;;;;;;;;;;;9.96;71.44;99684.84;5052607;28;19913;-85
2024/03/07 09:11:15;;;;;;;;;;;;;;;9.97;71.38;99678.56;5052494;28;19913;-86
2024/03/07 09:13:41;;;;;;;;;;;;;;;10.00;69.66;99686.16;5055724;28;19916;-86
2024/03/07 09:16:07;;;;;;;;;;;;;;;9.99;71.05;99684.50;5052123;28;19924;-87
2024/03/07 09:18:32;;;;;;;;;;;;;;;9.98;71.06;99688.13;5032132;28;20325;-86
2024/03/07 09:20:58;;;;;;;;;;;;;;;9.97;70.56;99686.50;5047809;28;19913;-84
2024/03/07 09:23:23;;;;;;;;;;;;;;;9.95;70.86;99685.84;5034723;28;19948;-86
2024/03/07 09:25:48;;;;;;;;;;;;;;;10.00;71.28;99685.31;5052060;28;19917;-85
2024/03/07 09:28:15;;;;;;;;;;;;;;;10.02;71.58;99686.81;5059997;28;19917;-86
2024/03/07 09:30:40;;;;;;;;;;;;;;;10.04;70.98;99679.53;5071881;28;20382;-86
2024/03/07 09:33:10;;;;;;;;;;;;;;;10.05;70.37;99683.81;5071965;28;19913;-86
2024/03/07 09:35:36;;;;;;;;;;;;;;;10.03;70.32;99685.81;5071103;28;19974;-86
2024/03/07 09:38:01;;;;;;;;;;;;;;;10.03;69.40;99677.91;5069258;28;19917;-87
2024/03/07 09:40:26;;;;;;;;;;;;;;;10.03;70.02;99672.63;5072100;28;19966;-87
2024/03/07 09:42:54;;;;;;;;;;;;;;;10.06;69.08;99677.56;5071623;28;20381;-86
2024/03/07 09:45:20;;;;;;;;;;;;;;;10.02;68.88;99680.69;5070960;28;19919;-86
2024/03/07 09:47:49;;;;;;;;;;;;;;;9.99;69.60;99667.84;5071883;28;19925;-86
2024/03/07 09:50:18;;;;;;;;;;;;;;;10.00;70.11;99672.97;5070494;28;19909;-87
2024/03/07 09:52:45;;;;;;;;;;;;;;;10.04;69.00;99670.81;5059785;28;19923;-85
2024/03/07 09:55:10;;;;;;;;;;;;;;;9.98;69.66;99679.41;5064824;28;19925;-85
2024/03/07 09:57:36;;;;;;;;;;;;;;;9.97;69.60;99672.47;5051637;28;20456;-85
2024/03/07 10:00:02;;;;;;;;;;;;;;;9.98;69.26;99680.22;5051485;28;19913;-86
2024/03/07 10:02:29;;;;;;;;;;;;;;;9.98;70.50;99680.22;5051369;28;19921;-85
2024/03/07 10:04:54;;;;;;;;;;;;;;;10.02;69.84;99678.06;5051399;28;19919;-85
2024/03/07 10:07:20;;;;;;;;;;;;;;;10.06;70.06;99677.56;5051776;28;19912;-85
2024/03/07 10:09:45;;;;;;;;;;;;;;;10.10;69.71;99678.03;5053532;28;19917;-85
2024/03/07 10:12:12;;;;;;;;;;;;;;;10.10;70.40;99672.75;5071533;28;19916;-85
2024/03/07 10:14:52;;;;;;;;;;;;;;;10.13;69.70;99672.41;5071512;28;19916;-85
2024/03/07 10:17:18;;;;;;;;;;;;;;;10.08;69.96;99672.91;5063330;28;19921;-85
2024/03/07 10:19:47;;;;;;;;;;;;;;;10.07;69.74;99679.19;5051268;28;20337;-85
2024/03/07 10:22:13;;;;;;;;;;;;;;;10.09;69.13;99673.75;5051298;28;19959;-85
2024/03/07 10:24:38;;;;;;;;;;;;;;;10.09;70.29;99679.84;5046599;28;20362;-84
2024/03/07 10:27:04;;;;;;;;;;;;;;;10.12;70.62;99681.31;5034597;28;19921;-86
2024/03/07 10:29:29;;;;;;;;;;;;;;;10.13;69.51;99682.97;5052488;28;19912;-87
2024/03/07 10:31:54;;;;;;;;;;;;;;;10.13;69.63;99680.31;5046153;28;19940;-87
2024/03/07 10:34:22;;;;;;;;;;;;;;;10.12;69.24;99683.97;5038457;28;19921;-86
2024/03/07 10:36:47;;;;;;;;;;;;;;;10.09;69.89;99682.47;5046543;28;20427;-86
2024/03/07 10:39:16;;;;;;;;;;;;;;;10.07;69.71;99683.66;5051407;28;19967;-86
2024/03/07 10:41:48;;;;;;;;;;;;;;;10.03;70.42;99680.53;5051358;28;20404;-84
2024/03/07 10:44:23;;;;;;;;;;;;;;;10.04;70.27;99673.44;5046050;28;19923;-84
2024/03/07 10:46:52;;;;;;;;;;;;;;;10.06;70.15;99685.47;5070242;28;19919;-84
2024/03/07 10:49:21;;;;;;;;;;;;;;;10.09;70.19;99679.84;5053741;28;19917;-84
2024/03/07 10:51:49;;;;;;;;;;;;;;;10.10;70.33;99675.38;5045635;28;20062;-84
2024/03/07 10:54:17;;;;;;;;;;;;;;;10.11;70.74;99671.75;5038840;28;19917;-84
2024/03/07 10:57:05;;;;;;;;;;;;;;;10.12;70.41;99665.50;5052323;28;19940;-84
2024/03/07 10:59:32;;;;;;;;;;;;;;;10.14;70.11;99669.59;5046015;28;20007;-84
2024/03/07 11:02:30;;;;;;;;;;;;;;;10.15;69.99;99668.59;5053760;28;19921;-84
2024/03/07 11:04:55;;;;;;;;;;;;;;;10.13;70.37;99665.31;5068608;28;20386;-83
2024/03/07 11:07:22;;;;;;;;;;;;;;;10.13;70.36;99669.78;5074963;28;19920;-85
2024/03/07 11:09:49;;;;;;;;;;;;;;;10.14;69.96;99661.69;5059248;28;19912;-85
2024/03/07 11:12:15;;;;;;;;;;;;;;;10.11;70.30;99671.75;5053210;28;19995;-84
2024/03/07 11:14:42;;;;;;;;;;;;;;;10.11;70.13;99671.75;5043690;28;19921;-84
2024/03/07 11:17:08;;;;;;;;;;;;;;;10.11;70.45;99674.41;5049929;28;20007;-84
2024/03/07 11:19:36;;;;;;;;;;;;;;;10.11;70.12;99675.22;5053388;28;20003;-83
2024/03/07 11:22:07;;;;;;;;;;;;;;;10.12;70.07;99697.97;5067638;28;19913;-84
2024/03/07 11:24:33;;;;;;;;;;;;;;;10.15;70.16;99681.78;5054541;28;19912;-84
2024/03/07 11:27:02;;;;;;;;;;;;;;;10.15;69.44;99686.25;5054461;28;19913;-84
2024/03/07 11:29:46;;;;;;;;;;;;;;;10.13;70.41;99696.97;5054331;28;19988;-84
2024/03/07 11:32:15;;;;;;;;;;;;;;;10.11;69.94;99698.97;5054478;28;19916;-84
2024/03/07 11:34:47;;;;;;;;;;;;;;;10.08;70.53;99704.59;5054624;28;19971;-84
2024/03/07 11:37:22;;;;;;;;;;;;;;;10.07;70.52;99707.38;5042429;28;20449;-84
2024/03/07 11:39:47;;;;;;;;;;;;;;;10.07;70.11;99702.94;5053332;28;20390;-84
2024/03/07 11:42:19;;;;;;;;;;;;;;;10.03;70.21;99714.81;5050323;28;19975;-84
2024/03/07 11:44:46;;;;;;;;;;;;;;;10.01;70.00;99722.09;5052335;28;19917;-83
2024/03/07 11:47:12;;;;;;;;;;;;;;;9.90;70.87;99730.34;5037796;28;19921;-84
2024/03/07 11:49:37;;;;;;;;;;;;;;;9.85;71.04;99736.13;5049797;28;19920;-84
2024/03/07 11:52:12;;;;;;;;;;;;;;;9.82;71.10;99735.66;5034290;28;19913;-84
2024/03/07 11:54:41;;;;;;;;;;;;;;;9.71;71.55;99733.38;5034105;28;19923;-84
2024/03/07 11:57:12;;;;;;;;;;;;;;;9.68;71.26;99733.72;5049191;28;19921;-83
2024/03/07 11:59:39;;;;;;;;;;;;;;;9.60;72.37;99731.06;5056189;28;19928;-83
2024/03/07 12:02:04;;;;;;;;;;;;;;;9.49;72.57;99726.94;5051565;28;19929;-83
2024/03/07 12:04:30;;;;;;;;;;;;;;;9.51;72.13;99731.06;5063498;28;19917;-85
2024/03/07 12:06:57;;;;;;;;;;;;;;;9.51;72.79;99738.97;5050377;28;20562;-85
2024/03/07 12:09:23;;;;;;;;;;;;;;;9.36;73.42;99738.00;5073567;28;20312;-85
2024/03/07 12:11:52;;;;;;;;;;;;;;;9.39;72.67;99736.84;5058672;28;20008;-84
2024/03/07 12:14:21;;;;;;;;;;;;;;;9.36;73.30;99745.91;5044418;28;20270;-85
2024/03/07 12:16:46;;;;;;;;;;;;;;;9.33;72.98;99746.22;5049074;28;20402;-82
2024/03/07 12:19:12;;;;;;;;;;;;;;;9.33;73.11;99733.06;5049025;28;19913;-82
2024/03/07 12:21:38;;;;;;;;;;;;;;;9.38;72.49;99741.28;5033800;28;19919;-83
2024/03/07 12:24:13;;;;;;;;;;;;;;;9.32;74.94;99723.50;5032117;28;19960;-82
2024/03/07 12:26:38;;;;;;;;;;;;;;;9.39;73.47;99713.94;5031925;28;19946;-82
2024/03/07 12:29:11;;;;;;;;;;;;;;;9.41;73.45;99709.34;5033371;28;20000;-82
2024/03/07 12:31:40;;;;;;;;;;;;;;;9.43;73.43;99712.63;5048649;28;20383;-82
2024/03/07 12:34:05;;;;;;;;;;;;;;;9.45;73.44;99707.19;5033411;28;19947;-82
2024/03/07 12:36:35;;;;;;;;;;;;;;;9.49;73.19;99703.22;5053010;28;20368;-82
2024/03/07 12:39:24;;;;;;;;;;;;;;;9.51;73.62;99703.88;5063053;28;19912;-82
2024/03/07 12:41:49;;;;;;;;;;;;;;;9.55;72.69;99694.66;5059554;28;20302;-83
2024/03/07 12:44:14;;;;;;;;;;;;;;;9.54;73.15;99691.19;5059782;28;19912;-82
2024/03/07 12:46:40;;;;;;;;;;;;;;;9.53;73.19;99686.91;5072908;28;19917;-81
2024/03/07 12:49:05;;;;;;;;;;;;;;;9.55;72.38;99681.47;5061657;28;19919;-83
2024/03/07 12:51:31;;;;;;;;;;;;;;;9.57;72.41;99671.59;5067233;28;19917;-82